首页
METAR-TAF:

METAR-TAF

机场 :

Golden, 不列颠哥伦比亚, 加拿大

纬度: 51-18N, 经度: 116-59W, 海拔: 785米

当前天气观测

该预报发布于1小时和12分钟前的14:00 UTC
风速3节,风向东转东南,在南转南东之间变化
温度 -1°C
湿度 74%
气压 1013 hPa
能見度: 32.2公里
少量云层高于6000英尺
阴天层高于9500英尺

METAR: CYGE 071400Z 12003KT 080V150 20SM FEW060 OVC095 M01/M05 A2991 RMK CU1AC8 CU TR SLP159

时间: 08:12 (15:12 UTC)


TAF: 丢失

超过4000个机场的气象观测和天气预报(METAR&TAF报告)。

可查询的气象台以黄色和红色小点在地图上表示。

将鼠标移到小点上方,可查看气象台名称。

然后点击查看天气观测和预报。

如需切换地图:点击带黑十字的绿色按钮放大地图;点击带横线的绿色按钮缩小地图;或者点击绿色箭头查看邻近地区的地图。


METAR-TAF: